Spur, Texas
Current Conditions -  °F | °C
As of 9:35 PM on Friday 24 Oct 2014 (Local Time) from KSNK Reporting Station
Clear Clear  
Wind Chill: 71°   Ceiling: Unl
Heat Index: 71°   Visibility: 10mi
Dew Point: 55°   Wind: 10mph
Humidity: 57%   Direction: 140°SE
Pressure: 30.13"   Gusts: NA
Location:  33.48°N, 100.86°W
Report Text: KSNK 250235Z AUTO 14009KT 10SM CLR 22/13 A3013 RMK AO2 T02170129
Loading
Personal Weather Stations






























Interactive Weather Map
Tropical Storm Tracking
New forecast layout! Learn more

10-Day Weather Forecast

Advertisements
Track Severe Weather on mobile